createdAt,value
2022-10-12T00:00:40.299Z,99.84
2022-10-12T00:05:41.147Z,99.72
2022-10-12T00:10:43.513Z,100.00
2022-10-12T00:15:44.434Z,99.66
2022-10-12T00:20:45.588Z,99.67
2022-10-12T00:25:46.324Z,98.07
2022-10-12T00:30:47.086Z,100.00
2022-10-12T00:35:47.857Z,100.00
2022-10-12T00:40:49.104Z,100.00
2022-10-12T00:45:50.056Z,100.00
2022-10-12T00:50:51.551Z,100.00
2022-10-12T00:55:58.125Z,100.00
2022-10-12T01:01:04.357Z,100.00
2022-10-12T01:06:06.901Z,100.00
2022-10-12T01:11:07.616Z,100.00
2022-10-12T01:23:15.848Z,100.00
2022-10-12T01:28:35.579Z,100.00
2022-10-12T01:33:44.971Z,100.00
2022-10-12T01:41:02.801Z,100.00
2022-10-12T01:47:55.904Z,100.00
2022-10-12T01:53:27.373Z,100.00
2022-10-12T02:00:06.463Z,100.00
2022-10-12T02:06:50.287Z,100.00
2022-10-12T02:11:56.362Z,100.00
2022-10-12T02:17:04.805Z,100.00
2022-10-12T02:22:08.838Z,100.00
2022-10-12T02:27:13.646Z,100.00
2022-10-12T02:32:34.904Z,100.00
2022-10-12T02:37:44.660Z,100.00
2022-10-12T02:43:11.080Z,100.00
2022-10-12T02:48:17.322Z,100.00
2022-10-12T02:53:19.896Z,100.00
2022-10-12T02:58:20.690Z,100.00
2022-10-12T03:03:21.701Z,100.00
2022-10-12T03:08:22.493Z,100.00
2022-10-12T03:13:23.250Z,100.00
2022-10-12T03:18:23.993Z,100.00
2022-10-12T03:23:25.101Z,100.00
2022-10-12T03:28:25.985Z,100.00
2022-10-12T03:33:27.000Z,100.00
2022-10-12T03:38:28.027Z,100.00
2022-10-12T03:43:28.849Z,100.00
2022-10-12T03:48:29.581Z,100.00
2022-10-12T03:53:30.824Z,100.00
2022-10-12T03:58:31.567Z,100.00
2022-10-12T04:03:32.410Z,100.00
2022-10-12T04:08:33.443Z,100.00
2022-10-12T04:13:34.644Z,100.00
2022-10-12T04:18:35.554Z,100.00
2022-10-12T04:23:36.385Z,100.00
2022-10-12T04:28:37.277Z,100.00
2022-10-12T04:33:38.517Z,100.00
2022-10-12T04:38:39.255Z,100.00
2022-10-12T04:43:40.223Z,100.00
2022-10-12T04:48:40.949Z,100.00
2022-10-12T04:53:41.989Z,100.00
2022-10-12T04:58:43.399Z,100.00
2022-10-12T05:03:44.266Z,100.00
2022-10-12T05:08:45.019Z,100.00
2022-10-12T05:13:45.809Z,100.00
2022-10-12T05:18:47.000Z,100.00
2022-10-12T05:23:51.669Z,100.00
2022-10-12T05:28:52.466Z,100.00
2022-10-12T05:33:53.716Z,100.00
2022-10-12T05:38:54.615Z,100.00
2022-10-12T05:43:55.554Z,100.00
2022-10-12T05:48:56.276Z,100.00
2022-10-12T05:53:57.029Z,100.00
2022-10-12T05:58:57.763Z,100.00
2022-10-12T06:03:58.672Z,100.00
2022-10-12T06:08:59.541Z,100.00
2022-10-12T06:14:00.317Z,100.00
2022-10-12T06:19:01.034Z,100.00
2022-10-12T06:24:01.811Z,100.00
2022-10-12T06:29:02.953Z,100.00
2022-10-12T06:34:04.080Z,100.00
2022-10-12T06:39:04.916Z,100.00
2022-10-12T06:44:06.384Z,100.00
2022-10-12T06:49:09.525Z,100.00
2022-10-12T06:54:10.418Z,100.00
2022-10-12T06:59:12.572Z,100.00
2022-10-12T07:04:13.392Z,100.00
2022-10-12T07:09:16.198Z,100.00
2022-10-12T07:14:17.134Z,100.00
2022-10-12T07:19:17.908Z,100.00
2022-10-12T07:24:18.648Z,100.00
2022-10-12T07:29:19.398Z,100.00
2022-10-12T07:34:20.204Z,100.00
2022-10-12T07:39:22.143Z,100.00
2022-10-12T07:44:23.690Z,100.00
2022-10-12T07:49:24.731Z,100.00
2022-10-12T07:54:29.153Z,100.00
2022-10-12T07:59:30.744Z,100.00
2022-10-12T08:04:31.574Z,100.00
2022-10-12T08:09:35.138Z,100.00
2022-10-12T08:14:36.484Z,97.14
2022-10-12T08:19:37.239Z,95.38
2022-10-12T08:24:38.053Z,88.87
2022-10-12T08:29:38.868Z,89.10
2022-10-12T08:34:39.821Z,86.14
2022-10-12T08:39:40.602Z,88.09
2022-10-12T08:46:34.012Z,80.25
2022-10-12T08:51:45.397Z,85.52
2022-10-12T08:56:46.290Z,82.45
2022-10-12T09:05:04.202Z,84.31
2022-10-12T09:10:37.678Z,81.17
2022-10-12T09:15:50.725Z,84.58
2022-10-12T09:20:52.584Z,90.21
2022-10-12T09:26:14.806Z,85.00
2022-10-12T09:31:42.922Z,86.75
2022-10-12T09:36:43.672Z,81.03
2022-10-12T09:41:47.232Z,78.10
2022-10-12T09:46:54.577Z,79.95
2022-10-12T09:51:59.929Z,78.29
2022-10-12T09:57:02.639Z,78.89
2022-10-12T10:02:16.717Z,79.10
2022-10-12T10:07:30.473Z,77.02
2022-10-12T10:12:31.803Z,76.22
2022-10-12T10:17:33.699Z,74.74
2022-10-12T10:22:34.456Z,75.40
2022-10-12T10:27:38.149Z,76.36
2022-10-12T10:32:38.903Z,73.55
2022-10-12T10:38:06.701Z,74.18
2022-10-12T10:43:24.662Z,71.26
2022-10-12T10:48:50.450Z,74.95
2022-10-12T10:53:51.302Z,74.01
2022-10-12T10:58:55.809Z,76.75
2022-10-12T11:07:01.107Z,73.51
2022-10-12T11:12:06.721Z,71.82
2022-10-12T11:17:16.472Z,72.32
2022-10-12T11:22:31.961Z,72.30
2022-10-12T11:27:41.104Z,72.92
2022-10-12T11:32:46.577Z,73.76
2022-10-12T11:37:53.373Z,77.79
2022-10-12T11:42:57.439Z,78.13
2022-10-12T11:48:09.643Z,75.78
2022-10-12T11:53:38.169Z,72.94
2022-10-12T11:58:59.836Z,71.00
2022-10-12T12:05:54.131Z,72.87
2022-10-12T12:11:18.670Z,71.54
2022-10-12T12:16:30.179Z,69.25
2022-10-12T12:22:25.797Z,70.86
2022-10-12T12:27:34.346Z,74.41
2022-10-12T12:32:46.357Z,74.04
2022-10-12T12:37:48.536Z,76.89
2022-10-12T12:42:49.679Z,75.40
2022-10-12T12:47:50.433Z,75.71
2022-10-12T12:53:05.956Z,76.24
2022-10-12T12:59:50.030Z,77.89
2022-10-12T13:05:29.141Z,79.64
2022-10-12T13:15:56.800Z,79.13
2022-10-12T13:20:58.602Z,80.99
2022-10-12T13:26:07.675Z,76.86
2022-10-12T13:31:57.950Z,75.71
2022-10-12T13:37:04.504Z,80.24
2022-10-12T13:42:05.937Z,81.16
2022-10-12T13:47:31.547Z,81.53
2022-10-12T13:52:33.565Z,76.76
2022-10-12T13:57:40.533Z,79.41
2022-10-12T14:02:52.431Z,78.14
2022-10-12T14:07:57.713Z,82.73
2022-10-12T14:13:01.116Z,82.35
2022-10-12T14:18:02.970Z,83.77
2022-10-12T14:23:15.192Z,80.77
2022-10-12T14:28:35.995Z,80.32
2022-10-12T14:33:36.792Z,82.55
2022-10-12T14:38:46.373Z,82.46
2022-10-12T14:44:06.153Z,83.49
2022-10-12T14:49:17.935Z,85.79
2022-10-12T14:54:19.166Z,87.43
2022-10-12T14:59:20.150Z,86.97
2022-10-12T15:04:20.896Z,88.10
2022-10-12T15:09:21.930Z,88.16
2022-10-12T15:14:22.702Z,87.50
2022-10-12T15:19:23.541Z,87.14
2022-10-12T15:24:24.316Z,89.01
2022-10-12T15:29:25.173Z,89.57
2022-10-12T15:34:26.641Z,89.28
2022-10-12T15:39:27.400Z,91.00
2022-10-12T15:44:28.256Z,91.00
2022-10-12T15:49:29.014Z,91.00
2022-10-12T15:54:29.754Z,91.33
2022-10-12T15:59:30.584Z,92.43
2022-10-12T16:04:31.324Z,91.88
2022-10-12T16:09:32.342Z,91.60
2022-10-12T16:14:33.093Z,91.96
2022-10-12T16:19:33.988Z,91.73
2022-10-12T16:24:35.036Z,92.58
2022-10-12T16:29:36.629Z,94.83
2022-10-12T16:34:37.589Z,96.54
2022-10-12T16:39:38.358Z,97.29
2022-10-12T16:44:39.170Z,97.39
2022-10-12T16:49:39.996Z,98.16
2022-10-12T16:54:41.146Z,100.00
2022-10-12T16:59:42.025Z,98.34
2022-10-12T17:04:43.462Z,98.96
2022-10-12T17:09:45.202Z,100.00
2022-10-12T17:14:46.098Z,100.00
2022-10-12T17:19:47.259Z,100.00
2022-10-12T17:24:48.419Z,100.00
2022-10-12T17:29:49.290Z,100.00
2022-10-12T17:34:50.078Z,100.00
2022-10-12T17:39:50.942Z,100.00
2022-10-12T17:44:52.429Z,100.00
2022-10-12T17:49:53.185Z,100.00
2022-10-12T17:54:53.920Z,100.00
2022-10-12T17:59:54.814Z,100.00
2022-10-12T18:04:55.555Z,100.00
2022-10-12T18:14:57.745Z,100.00
2022-10-12T18:19:58.569Z,100.00
2022-10-12T18:24:59.320Z,100.00
2022-10-12T18:30:00.182Z,100.00
2022-10-12T18:35:01.751Z,100.00
2022-10-12T18:40:03.135Z,100.00
2022-10-12T18:45:05.091Z,100.00
2022-10-12T18:50:07.228Z,100.00
2022-10-12T18:55:09.736Z,100.00
2022-10-12T19:00:11.256Z,100.00
2022-10-12T19:05:12.029Z,100.00
2022-10-12T19:10:12.957Z,100.00
2022-10-12T19:15:13.809Z,100.00
2022-10-12T19:20:14.555Z,100.00
2022-10-12T19:25:15.471Z,100.00
2022-10-12T19:30:16.424Z,100.00
2022-10-12T19:35:17.210Z,100.00
2022-10-12T19:40:17.973Z,100.00
2022-10-12T19:45:18.743Z,100.00
2022-10-12T19:50:19.489Z,100.00
2022-10-12T19:55:20.255Z,100.00
2022-10-12T20:00:21.171Z,100.00
2022-10-12T20:05:21.944Z,100.00
2022-10-12T20:10:22.711Z,100.00
2022-10-12T20:15:23.505Z,100.00
2022-10-12T20:20:24.257Z,100.00
2022-10-12T20:25:25.067Z,100.00
2022-10-12T20:30:25.886Z,100.00
2022-10-12T20:35:27.734Z,100.00
2022-10-12T20:40:28.824Z,100.00
2022-10-12T20:45:29.579Z,100.00
2022-10-12T20:50:30.446Z,100.00
2022-10-12T20:55:31.226Z,100.00
2022-10-12T21:00:32.147Z,100.00
2022-10-12T21:05:36.274Z,100.00
2022-10-12T21:10:40.156Z,100.00
2022-10-12T21:15:49.250Z,100.00
2022-10-12T21:20:58.351Z,100.00
2022-10-12T21:26:08.224Z,100.00
2022-10-12T21:31:10.250Z,100.00
2022-10-12T21:36:20.179Z,100.00
2022-10-12T21:41:23.148Z,100.00
2022-10-12T21:46:29.714Z,100.00
2022-10-12T21:51:31.500Z,100.00
2022-10-12T21:56:34.557Z,100.00
2022-10-12T22:01:38.477Z,100.00
2022-10-12T22:06:39.983Z,100.00
2022-10-12T22:11:41.567Z,100.00
2022-10-12T22:16:45.282Z,100.00
2022-10-12T22:21:51.322Z,100.00
2022-10-12T22:26:53.305Z,100.00
2022-10-12T22:31:54.469Z,100.00
2022-10-12T22:36:55.283Z,100.00
2022-10-12T22:41:58.055Z,100.00
2022-10-12T22:46:58.817Z,100.00
2022-10-12T22:51:59.617Z,100.00
2022-10-12T22:57:00.363Z,100.00
2022-10-12T23:02:02.815Z,100.00
2022-10-12T23:07:03.789Z,100.00
2022-10-12T23:12:04.813Z,100.00
2022-10-12T23:17:05.547Z,100.00
2022-10-12T23:22:06.743Z,100.00
2022-10-12T23:27:07.466Z,100.00
2022-10-12T23:32:08.482Z,100.00
2022-10-12T23:37:09.220Z,100.00
2022-10-12T23:42:09.982Z,100.00
2022-10-12T23:47:10.725Z,100.00
2022-10-12T23:52:12.123Z,100.00
2022-10-12T23:57:28.385Z,100.00
